sensor_id;sensor_type;location;lat;lon;timestamp;P1;durP1;ratioP1;P2;durP2;ratioP2
75616;SDS011;64200;55.426;37.758;2023-06-22T00:01:38;3.60;;;3.20;;
75616;SDS011;64200;55.426;37.758;2023-06-22T00:06:38;6.45;;;3.35;;
75616;SDS011;64200;55.426;37.758;2023-06-22T00:11:39;5.55;;;3.17;;
75616;SDS011;64200;55.426;37.758;2023-06-22T00:16:40;5.57;;;3.55;;
75616;SDS011;64200;55.426;37.758;2023-06-22T00:21:42;3.08;;;2.65;;
75616;SDS011;64200;55.426;37.758;2023-06-22T00:26:49;3.63;;;2.63;;
75616;SDS011;64200;55.426;37.758;2023-06-22T00:31:50;5.30;;;3.13;;
75616;SDS011;64200;55.426;37.758;2023-06-22T00:36:51;6.18;;;2.58;;
75616;SDS011;64200;55.426;37.758;2023-06-22T00:41:51;5.72;;;2.45;;
75616;SDS011;64200;55.426;37.758;2023-06-22T00:46:52;4.63;;;3.15;;
75616;SDS011;64200;55.426;37.758;2023-06-22T00:51:52;5.18;;;3.15;;
75616;SDS011;64200;55.426;37.758;2023-06-22T00:56:53;4.93;;;2.75;;
75616;SDS011;64200;55.426;37.758;2023-06-22T01:01:56;5.10;;;2.85;;
75616;SDS011;64200;55.426;37.758;2023-06-22T01:07:21;4.78;;;3.08;;
75616;SDS011;64200;55.426;37.758;2023-06-22T01:12:39;7.07;;;3.22;;
75616;SDS011;64200;55.426;37.758;2023-06-22T01:17:43;4.20;;;2.83;;
75616;SDS011;64200;55.426;37.758;2023-06-22T01:33:35;5.70;;;3.42;;
75616;SDS011;64200;55.426;37.758;2023-06-22T01:38:39;7.35;;;3.17;;
75616;SDS011;64200;55.426;37.758;2023-06-22T01:43:40;4.22;;;3.05;;
75616;SDS011;64200;55.426;37.758;2023-06-22T01:48:41;6.35;;;3.05;;
75616;SDS011;64200;55.426;37.758;2023-06-22T01:53:42;5.45;;;3.50;;
75616;SDS011;64200;55.426;37.758;2023-06-22T01:58:47;4.23;;;3.10;;
75616;SDS011;64200;55.426;37.758;2023-06-22T02:04:17;8.13;;;4.07;;
75616;SDS011;64200;55.426;37.758;2023-06-22T02:09:21;6.45;;;3.78;;
75616;SDS011;64200;55.426;37.758;2023-06-22T02:14:24;6.18;;;3.45;;
75616;SDS011;64200;55.426;37.758;2023-06-22T02:19:26;6.85;;;3.95;;
75616;SDS011;64200;55.426;37.758;2023-06-22T02:24:27;5.00;;;3.42;;
75616;SDS011;64200;55.426;37.758;2023-06-22T02:29:31;5.90;;;3.53;;
75616;SDS011;64200;55.426;37.758;2023-06-22T02:34:31;8.88;;;4.00;;
75616;SDS011;64200;55.426;37.758;2023-06-22T02:39:34;6.90;;;4.05;;
75616;SDS011;64200;55.426;37.758;2023-06-22T02:44:34;8.17;;;5.07;;
75616;SDS011;64200;55.426;37.758;2023-06-22T02:49:35;6.20;;;3.73;;
75616;SDS011;64200;55.426;37.758;2023-06-22T02:54:35;7.33;;;3.53;;
75616;SDS011;64200;55.426;37.758;2023-06-22T02:59:36;6.03;;;3.77;;
75616;SDS011;64200;55.426;37.758;2023-06-22T03:09:41;6.77;;;3.57;;
75616;SDS011;64200;55.426;37.758;2023-06-22T03:14:42;5.32;;;3.58;;
75616;SDS011;64200;55.426;37.758;2023-06-22T03:19:42;7.10;;;3.47;;
75616;SDS011;64200;55.426;37.758;2023-06-22T03:24:43;8.05;;;4.20;;
75616;SDS011;64200;55.426;37.758;2023-06-22T03:29:44;6.87;;;3.97;;
75616;SDS011;64200;55.426;37.758;2023-06-22T03:34:44;5.78;;;3.83;;
75616;SDS011;64200;55.426;37.758;2023-06-22T03:39:47;6.45;;;4.00;;
75616;SDS011;64200;55.426;37.758;2023-06-22T03:44:47;6.03;;;4.07;;
75616;SDS011;64200;55.426;37.758;2023-06-22T03:49:48;9.52;;;3.90;;
75616;SDS011;64200;55.426;37.758;2023-06-22T03:54:48;8.32;;;4.50;;
75616;SDS011;64200;55.426;37.758;2023-06-22T03:59:49;10.77;;;4.17;;
75616;SDS011;64200;55.426;37.758;2023-06-22T04:04:49;7.60;;;3.75;;
75616;SDS011;64200;55.426;37.758;2023-06-22T04:09:50;6.60;;;3.55;;
75616;SDS011;64200;55.426;37.758;2023-06-22T04:14:50;7.22;;;3.45;;
75616;SDS011;64200;55.426;37.758;2023-06-22T04:19:51;7.07;;;3.65;;
75616;SDS011;64200;55.426;37.758;2023-06-22T04:24:52;6.43;;;3.72;;
75616;SDS011;64200;55.426;37.758;2023-06-22T04:29:53;5.85;;;3.63;;
75616;SDS011;64200;55.426;37.758;2023-06-22T04:34:53;4.30;;;3.33;;
75616;SDS011;64200;55.426;37.758;2023-06-22T04:39:53;6.60;;;3.45;;
75616;SDS011;64200;55.426;37.758;2023-06-22T04:44:54;5.15;;;3.67;;
75616;SDS011;64200;55.426;37.758;2023-06-22T04:49:55;16.70;;;11.33;;
75616;SDS011;64200;55.426;37.758;2023-06-22T04:54:55;4.07;;;2.73;;
75616;SDS011;64200;55.426;37.758;2023-06-22T05:00:00;6.53;;;3.65;;
75616;SDS011;64200;55.426;37.758;2023-06-22T05:05:15;6.93;;;3.53;;
75616;SDS011;64200;55.426;37.758;2023-06-22T05:15:16;7.53;;;3.50;;
75616;SDS011;64200;55.426;37.758;2023-06-22T05:20:19;6.65;;;3.90;;
75616;SDS011;64200;55.426;37.758;2023-06-22T05:25:20;6.45;;;3.47;;
75616;SDS011;64200;55.426;37.758;2023-06-22T05:30:20;4.05;;;2.90;;
75616;SDS011;64200;55.426;37.758;2023-06-22T05:35:21;5.05;;;2.72;;
75616;SDS011;64200;55.426;37.758;2023-06-22T05:40:21;5.82;;;2.70;;
75616;SDS011;64200;55.426;37.758;2023-06-22T05:45:22;4.10;;;2.47;;
75616;SDS011;64200;55.426;37.758;2023-06-22T05:50:22;4.33;;;3.07;;
75616;SDS011;64200;55.426;37.758;2023-06-22T05:55:23;6.00;;;2.50;;
75616;SDS011;64200;55.426;37.758;2023-06-22T06:00:23;8.17;;;3.37;;
75616;SDS011;64200;55.426;37.758;2023-06-22T06:05:24;5.47;;;3.00;;
75616;SDS011;64200;55.426;37.758;2023-06-22T06:10:25;3.75;;;2.42;;
75616;SDS011;64200;55.426;37.758;2023-06-22T06:15:26;4.47;;;2.55;;
75616;SDS011;64200;55.426;37.758;2023-06-22T06:20:26;6.23;;;3.00;;
75616;SDS011;64200;55.426;37.758;2023-06-22T06:25:30;8.80;;;3.33;;
75616;SDS011;64200;55.426;37.758;2023-06-22T06:30:31;6.72;;;2.50;;
75616;SDS011;64200;55.426;37.758;2023-06-22T06:35:31;7.47;;;3.67;;
75616;SDS011;64200;55.426;37.758;2023-06-22T06:40:32;6.20;;;2.80;;
75616;SDS011;64200;55.426;37.758;2023-06-22T06:45:32;3.45;;;2.60;;
75616;SDS011;64200;55.426;37.758;2023-06-22T06:50:34;5.15;;;3.10;;
75616;SDS011;64200;55.426;37.758;2023-06-22T06:55:35;6.53;;;2.90;;
75616;SDS011;64200;55.426;37.758;2023-06-22T07:00:35;4.80;;;2.60;;
75616;SDS011;64200;55.426;37.758;2023-06-22T07:05:37;3.78;;;2.85;;
75616;SDS011;64200;55.426;37.758;2023-06-22T07:10:38;7.22;;;3.10;;
75616;SDS011;64200;55.426;37.758;2023-06-22T07:15:39;4.45;;;2.45;;
75616;SDS011;64200;55.426;37.758;2023-06-22T07:20:39;6.47;;;3.00;;
75616;SDS011;64200;55.426;37.758;2023-06-22T07:25:41;8.15;;;3.05;;
75616;SDS011;64200;55.426;37.758;2023-06-22T07:30:41;4.93;;;2.80;;
75616;SDS011;64200;55.426;37.758;2023-06-22T07:35:42;4.73;;;2.73;;
75616;SDS011;64200;55.426;37.758;2023-06-22T07:40:42;4.97;;;2.83;;
75616;SDS011;64200;55.426;37.758;2023-06-22T07:45:50;6.35;;;3.10;;
75616;SDS011;64200;55.426;37.758;2023-06-22T07:50:52;3.28;;;2.65;;
75616;SDS011;64200;55.426;37.758;2023-06-22T07:55:53;5.00;;;2.78;;
75616;SDS011;64200;55.426;37.758;2023-06-22T08:00:54;6.40;;;3.22;;
75616;SDS011;64200;55.426;37.758;2023-06-22T08:05:54;5.70;;;3.03;;
75616;SDS011;64200;55.426;37.758;2023-06-22T08:10:55;4.20;;;2.90;;
75616;SDS011;64200;55.426;37.758;2023-06-22T08:15:55;4.47;;;3.00;;
75616;SDS011;64200;55.426;37.758;2023-06-22T08:20:56;4.25;;;3.00;;
75616;SDS011;64200;55.426;37.758;2023-06-22T08:25:56;4.07;;;2.63;;
75616;SDS011;64200;55.426;37.758;2023-06-22T08:30:58;3.72;;;3.22;;
75616;SDS011;64200;55.426;37.758;2023-06-22T08:36:00;9.60;;;3.63;;
75616;SDS011;64200;55.426;37.758;2023-06-22T08:41:00;5.32;;;3.05;;
75616;SDS011;64200;55.426;37.758;2023-06-22T08:46:01;3.77;;;3.10;;
75616;SDS011;64200;55.426;37.758;2023-06-22T08:51:02;3.83;;;3.25;;
75616;SDS011;64200;55.426;37.758;2023-06-22T08:56:05;6.75;;;3.65;;
75616;SDS011;64200;55.426;37.758;2023-06-22T09:01:05;4.40;;;2.92;;
75616;SDS011;64200;55.426;37.758;2023-06-22T09:06:06;3.63;;;3.05;;
75616;SDS011;64200;55.426;37.758;2023-06-22T09:11:06;5.03;;;3.05;;
75616;SDS011;64200;55.426;37.758;2023-06-22T09:16:07;7.35;;;3.22;;
75616;SDS011;64200;55.426;37.758;2023-06-22T09:21:07;4.95;;;2.90;;
75616;SDS011;64200;55.426;37.758;2023-06-22T09:26:09;3.80;;;3.35;;
75616;SDS011;64200;55.426;37.758;2023-06-22T09:31:10;4.35;;;3.30;;
75616;SDS011;64200;55.426;37.758;2023-06-22T09:36:11;4.65;;;3.03;;
75616;SDS011;64200;55.426;37.758;2023-06-22T09:41:11;5.03;;;3.65;;
75616;SDS011;64200;55.426;37.758;2023-06-22T09:46:12;3.75;;;3.30;;
75616;SDS011;64200;55.426;37.758;2023-06-22T09:51:12;4.03;;;3.60;;
75616;SDS011;64200;55.426;37.758;2023-06-22T09:56:13;4.82;;;3.33;;
75616;SDS011;64200;55.426;37.758;2023-06-22T10:01:16;3.80;;;3.28;;
75616;SDS011;64200;55.426;37.758;2023-06-22T10:06:17;5.10;;;3.53;;
75616;SDS011;64200;55.426;37.758;2023-06-22T10:11:18;5.97;;;3.28;;
75616;SDS011;64200;55.426;37.758;2023-06-22T10:16:18;4.80;;;3.35;;
75616;SDS011;64200;55.426;37.758;2023-06-22T10:21:19;5.07;;;3.70;;
75616;SDS011;64200;55.426;37.758;2023-06-22T10:26:19;5.93;;;3.80;;
75616;SDS011;64200;55.426;37.758;2023-06-22T10:31:20;5.50;;;3.67;;
75616;SDS011;64200;55.426;37.758;2023-06-22T10:36:21;4.30;;;3.83;;
75616;SDS011;64200;55.426;37.758;2023-06-22T10:41:21;4.80;;;3.80;;
75616;SDS011;64200;55.426;37.758;2023-06-22T10:46:23;4.05;;;3.63;;
75616;SDS011;64200;55.426;37.758;2023-06-22T10:51:25;4.78;;;3.78;;
75616;SDS011;64200;55.426;37.758;2023-06-22T10:56:28;5.38;;;3.92;;
75616;SDS011;64200;55.426;37.758;2023-06-22T11:01:28;6.50;;;3.65;;
75616;SDS011;64200;55.426;37.758;2023-06-22T11:06:31;3.90;;;3.50;;
75616;SDS011;64200;55.426;37.758;2023-06-22T11:11:31;4.25;;;3.80;;
75616;SDS011;64200;55.426;37.758;2023-06-22T11:16:32;6.63;;;3.55;;
75616;SDS011;64200;55.426;37.758;2023-06-22T11:21:34;4.78;;;3.58;;
75616;SDS011;64200;55.426;37.758;2023-06-22T11:26:35;4.10;;;3.70;;
75616;SDS011;64200;55.426;37.758;2023-06-22T11:31:36;4.45;;;4.03;;
75616;SDS011;64200;55.426;37.758;2023-06-22T11:36:36;4.80;;;3.88;;
75616;SDS011;64200;55.426;37.758;2023-06-22T11:41:37;4.47;;;3.80;;
75616;SDS011;64200;55.426;37.758;2023-06-22T11:46:38;5.10;;;3.72;;
75616;SDS011;64200;55.426;37.758;2023-06-22T11:51:38;3.90;;;3.53;;
75616;SDS011;64200;55.426;37.758;2023-06-22T11:56:39;10.48;;;3.75;;
75616;SDS011;64200;55.426;37.758;2023-06-22T12:01:39;4.57;;;4.17;;
75616;SDS011;64200;55.426;37.758;2023-06-22T12:06:40;4.03;;;3.47;;
75616;SDS011;64200;55.426;37.758;2023-06-22T12:11:42;6.95;;;5.00;;
75616;SDS011;64200;55.426;37.758;2023-06-22T12:16:43;5.03;;;4.20;;
75616;SDS011;64200;55.426;37.758;2023-06-22T12:21:44;5.10;;;4.18;;
75616;SDS011;64200;55.426;37.758;2023-06-22T12:26:45;4.85;;;3.92;;
75616;SDS011;64200;55.426;37.758;2023-06-22T12:31:46;4.13;;;3.73;;
75616;SDS011;64200;55.426;37.758;2023-06-22T12:36:46;4.15;;;3.75;;
75616;SDS011;64200;55.426;37.758;2023-06-22T12:41:48;6.65;;;3.83;;
75616;SDS011;64200;55.426;37.758;2023-06-22T12:46:49;6.55;;;3.83;;
75616;SDS011;64200;55.426;37.758;2023-06-22T12:51:49;4.47;;;3.88;;
75616;SDS011;64200;55.426;37.758;2023-06-22T12:56:50;4.97;;;3.37;;
75616;SDS011;64200;55.426;37.758;2023-06-22T13:01:51;4.03;;;3.60;;
75616;SDS011;64200;55.426;37.758;2023-06-22T13:06:51;5.25;;;3.83;;
75616;SDS011;64200;55.426;37.758;2023-06-22T13:11:52;4.05;;;3.38;;
75616;SDS011;64200;55.426;37.758;2023-06-22T13:16:52;4.30;;;3.75;;
75616;SDS011;64200;55.426;37.758;2023-06-22T13:21:53;4.82;;;3.83;;
75616;SDS011;64200;55.426;37.758;2023-06-22T13:26:53;6.03;;;3.90;;
75616;SDS011;64200;55.426;37.758;2023-06-22T13:31:56;6.05;;;4.25;;
75616;SDS011;64200;55.426;37.758;2023-06-22T13:36:57;5.00;;;4.50;;
75616;SDS011;64200;55.426;37.758;2023-06-22T13:41:57;6.30;;;3.97;;
75616;SDS011;64200;55.426;37.758;2023-06-22T13:46:58;7.50;;;4.07;;
75616;SDS011;64200;55.426;37.758;2023-06-22T13:51:59;5.95;;;3.80;;
75616;SDS011;64200;55.426;37.758;2023-06-22T13:57:00;5.75;;;4.30;;
75616;SDS011;64200;55.426;37.758;2023-06-22T14:02:00;6.65;;;4.00;;
75616;SDS011;64200;55.426;37.758;2023-06-22T14:07:01;6.63;;;4.47;;
75616;SDS011;64200;55.426;37.758;2023-06-22T14:12:05;4.88;;;4.07;;
75616;SDS011;64200;55.426;37.758;2023-06-22T14:17:06;5.05;;;4.30;;
75616;SDS011;64200;55.426;37.758;2023-06-22T14:22:07;4.25;;;3.85;;
75616;SDS011;64200;55.426;37.758;2023-06-22T14:27:07;5.28;;;4.03;;
75616;SDS011;64200;55.426;37.758;2023-06-22T14:32:09;5.15;;;4.05;;
75616;SDS011;64200;55.426;37.758;2023-06-22T14:37:10;5.38;;;3.88;;
75616;SDS011;64200;55.426;37.758;2023-06-22T14:42:10;5.50;;;3.95;;
75616;SDS011;64200;55.426;37.758;2023-06-22T14:47:11;6.28;;;3.60;;
75616;SDS011;64200;55.426;37.758;2023-06-22T14:52:11;7.43;;;3.80;;
75616;SDS011;64200;55.426;37.758;2023-06-22T14:57:12;5.07;;;3.58;;
75616;SDS011;64200;55.426;37.758;2023-06-22T15:02:13;4.95;;;3.65;;
75616;SDS011;64200;55.426;37.758;2023-06-22T15:07:13;5.05;;;3.80;;
75616;SDS011;64200;55.426;37.758;2023-06-22T15:12:14;4.17;;;3.53;;
75616;SDS011;64200;55.426;37.758;2023-06-22T15:17:14;7.38;;;3.78;;
75616;SDS011;64200;55.426;37.758;2023-06-22T15:22:15;7.15;;;4.68;;
75616;SDS011;64200;55.426;37.758;2023-06-22T15:27:18;7.72;;;5.35;;
75616;SDS011;64200;55.426;37.758;2023-06-22T15:32:19;7.45;;;3.63;;
75616;SDS011;64200;55.426;37.758;2023-06-22T15:37:20;6.57;;;4.13;;
75616;SDS011;64200;55.426;37.758;2023-06-22T15:42:20;5.85;;;3.97;;
75616;SDS011;64200;55.426;37.758;2023-06-22T15:47:21;7.47;;;4.57;;
75616;SDS011;64200;55.426;37.758;2023-06-22T15:52:22;5.45;;;3.92;;
75616;SDS011;64200;55.426;37.758;2023-06-22T15:57:23;6.18;;;4.05;;
75616;SDS011;64200;55.426;37.758;2023-06-22T16:02:26;7.15;;;4.00;;
75616;SDS011;64200;55.426;37.758;2023-06-22T16:07:28;8.15;;;4.57;;
75616;SDS011;64200;55.426;37.758;2023-06-22T16:12:28;8.90;;;3.92;;
75616;SDS011;64200;55.426;37.758;2023-06-22T16:17:29;9.10;;;4.93;;
75616;SDS011;64200;55.426;37.758;2023-06-22T16:22:29;6.65;;;3.92;;
75616;SDS011;64200;55.426;37.758;2023-06-22T16:27:30;5.03;;;3.60;;
75616;SDS011;64200;55.426;37.758;2023-06-22T16:32:32;6.45;;;4.32;;
75616;SDS011;64200;55.426;37.758;2023-06-22T16:37:32;4.82;;;4.20;;
75616;SDS011;64200;55.426;37.758;2023-06-22T16:42:33;5.72;;;4.00;;
75616;SDS011;64200;55.426;37.758;2023-06-22T16:47:34;5.60;;;3.78;;
75616;SDS011;64200;55.426;37.758;2023-06-22T16:52:35;7.53;;;5.15;;
75616;SDS011;64200;55.426;37.758;2023-06-22T16:57:37;7.10;;;4.57;;
75616;SDS011;64200;55.426;37.758;2023-06-22T17:02:42;8.77;;;5.47;;
75616;SDS011;64200;55.426;37.758;2023-06-22T17:07:52;10.73;;;4.45;;
75616;SDS011;64200;55.426;37.758;2023-06-22T17:12:53;5.55;;;3.40;;
75616;SDS011;64200;55.426;37.758;2023-06-22T17:17:56;7.25;;;3.25;;
75616;SDS011;64200;55.426;37.758;2023-06-22T17:22:57;6.35;;;3.03;;
75616;SDS011;64200;55.426;37.758;2023-06-22T17:27:58;5.55;;;3.25;;
75616;SDS011;64200;55.426;37.758;2023-06-22T17:33:00;5.95;;;3.30;;
75616;SDS011;64200;55.426;37.758;2023-06-22T17:38:00;5.28;;;3.13;;
75616;SDS011;64200;55.426;37.758;2023-06-22T17:43:17;6.10;;;2.85;;
75616;SDS011;64200;55.426;37.758;2023-06-22T17:48:20;5.05;;;3.42;;
75616;SDS011;64200;55.426;37.758;2023-06-22T17:53:25;5.85;;;3.08;;
75616;SDS011;64200;55.426;37.758;2023-06-22T18:03:27;5.57;;;2.67;;
75616;SDS011;64200;55.426;37.758;2023-06-22T18:08:27;6.47;;;3.15;;
75616;SDS011;64200;55.426;37.758;2023-06-22T18:13:28;5.28;;;2.80;;
75616;SDS011;64200;55.426;37.758;2023-06-22T18:18:29;4.93;;;2.42;;
75616;SDS011;64200;55.426;37.758;2023-06-22T18:23:33;8.77;;;2.72;;
75616;SDS011;64200;55.426;37.758;2023-06-22T18:28:36;5.43;;;2.30;;
75616;SDS011;64200;55.426;37.758;2023-06-22T18:33:37;5.38;;;2.47;;
75616;SDS011;64200;55.426;37.758;2023-06-22T18:38:42;4.10;;;2.65;;
75616;SDS011;64200;55.426;37.758;2023-06-22T18:43:43;4.05;;;2.58;;
75616;SDS011;64200;55.426;37.758;2023-06-22T18:48:44;4.05;;;2.40;;
75616;SDS011;64200;55.426;37.758;2023-06-22T18:53:44;8.38;;;2.50;;
75616;SDS011;64200;55.426;37.758;2023-06-22T18:59:02;6.55;;;2.53;;
75616;SDS011;64200;55.426;37.758;2023-06-22T19:04:15;4.72;;;2.60;;
75616;SDS011;64200;55.426;37.758;2023-06-22T19:09:17;4.38;;;2.60;;
75616;SDS011;64200;55.426;37.758;2023-06-22T19:14:19;6.63;;;3.22;;
75616;SDS011;64200;55.426;37.758;2023-06-22T19:19:21;4.70;;;2.85;;
75616;SDS011;64200;55.426;37.758;2023-06-22T19:24:28;6.00;;;2.97;;
75616;SDS011;64200;55.426;37.758;2023-06-22T19:29:52;5.10;;;3.50;;
75616;SDS011;64200;55.426;37.758;2023-06-22T19:34:53;4.97;;;2.97;;
75616;SDS011;64200;55.426;37.758;2023-06-22T19:39:54;6.22;;;3.17;;
75616;SDS011;64200;55.426;37.758;2023-06-22T19:44:57;5.15;;;2.80;;
75616;SDS011;64200;55.426;37.758;2023-06-22T19:49:58;3.90;;;2.47;;
75616;SDS011;64200;55.426;37.758;2023-06-22T19:54:59;4.30;;;2.45;;
75616;SDS011;64200;55.426;37.758;2023-06-22T20:00:00;2.70;;;2.15;;
75616;SDS011;64200;55.426;37.758;2023-06-22T20:05:07;3.15;;;1.75;;
75616;SDS011;64200;55.426;37.758;2023-06-22T20:10:10;3.63;;;1.85;;
75616;SDS011;64200;55.426;37.758;2023-06-22T20:15:28;3.63;;;1.63;;
75616;SDS011;64200;55.426;37.758;2023-06-22T20:20:31;4.22;;;1.90;;
75616;SDS011;64200;55.426;37.758;2023-06-22T20:25:36;6.40;;;1.90;;
75616;SDS011;64200;55.426;37.758;2023-06-22T20:30:38;5.40;;;1.98;;
75616;SDS011;64200;55.426;37.758;2023-06-22T20:35:40;3.90;;;1.80;;
75616;SDS011;64200;55.426;37.758;2023-06-22T20:40:41;4.88;;;1.77;;
75616;SDS011;64200;55.426;37.758;2023-06-22T20:45:41;4.93;;;2.00;;
75616;SDS011;64200;55.426;37.758;2023-06-22T20:50:42;5.95;;;2.00;;
75616;SDS011;64200;55.426;37.758;2023-06-22T20:55:43;4.10;;;1.60;;
75616;SDS011;64200;55.426;37.758;2023-06-22T21:00:44;5.65;;;1.80;;
75616;SDS011;64200;55.426;37.758;2023-06-22T21:05:44;2.67;;;1.57;;
75616;SDS011;64200;55.426;37.758;2023-06-22T21:10:46;4.15;;;1.70;;
75616;SDS011;64200;55.426;37.758;2023-06-22T21:15:47;4.15;;;1.40;;
75616;SDS011;64200;55.426;37.758;2023-06-22T21:20:47;3.43;;;1.60;;
75616;SDS011;64200;55.426;37.758;2023-06-22T21:25:48;1.17;;;0.87;;
75616;SDS011;64200;55.426;37.758;2023-06-22T21:30:49;1.48;;;1.38;;
75616;SDS011;64200;55.426;37.758;2023-06-22T21:35:51;3.80;;;1.88;;
75616;SDS011;64200;55.426;37.758;2023-06-22T21:40:51;2.37;;;1.57;;
75616;SDS011;64200;55.426;37.758;2023-06-22T21:45:52;4.10;;;1.43;;
75616;SDS011;64200;55.426;37.758;2023-06-22T21:50:52;2.15;;;1.40;;
75616;SDS011;64200;55.426;37.758;2023-06-22T21:55:53;1.80;;;1.58;;
75616;SDS011;64200;55.426;37.758;2023-06-22T22:00:54;3.65;;;1.90;;
75616;SDS011;64200;55.426;37.758;2023-06-22T22:05:55;2.63;;;1.70;;
75616;SDS011;64200;55.426;37.758;2023-06-22T22:10:56;2.92;;;1.60;;
75616;SDS011;64200;55.426;37.758;2023-06-22T22:15:57;2.60;;;1.73;;
75616;SDS011;64200;55.426;37.758;2023-06-22T22:20:57;8.13;;;1.73;;
75616;SDS011;64200;55.426;37.758;2023-06-22T22:25:58;3.55;;;1.88;;
75616;SDS011;64200;55.426;37.758;2023-06-22T22:30:58;3.55;;;1.50;;
75616;SDS011;64200;55.426;37.758;2023-06-22T22:35:59;3.35;;;2.15;;
75616;SDS011;64200;55.426;37.758;2023-06-22T22:41:05;2.45;;;1.80;;
75616;SDS011;64200;55.426;37.758;2023-06-22T22:46:05;4.23;;;1.67;;
75616;SDS011;64200;55.426;37.758;2023-06-22T22:51:06;4.27;;;1.60;;
75616;SDS011;64200;55.426;37.758;2023-06-22T22:56:08;2.70;;;1.60;;
75616;SDS011;64200;55.426;37.758;2023-06-22T23:01:09;2.63;;;1.80;;
75616;SDS011;64200;55.426;37.758;2023-06-22T23:06:10;2.78;;;1.60;;
75616;SDS011;64200;55.426;37.758;2023-06-22T23:11:11;4.90;;;1.70;;
75616;SDS011;64200;55.426;37.758;2023-06-22T23:16:11;2.58;;;1.50;;
75616;SDS011;64200;55.426;37.758;2023-06-22T23:21:12;4.40;;;1.67;;
75616;SDS011;64200;55.426;37.758;2023-06-22T23:26:12;3.30;;;1.73;;
75616;SDS011;64200;55.426;37.758;2023-06-22T23:31:14;6.13;;;1.50;;
75616;SDS011;64200;55.426;37.758;2023-06-22T23:36:15;2.33;;;1.25;;
75616;SDS011;64200;55.426;37.758;2023-06-22T23:41:16;3.42;;;1.30;;
75616;SDS011;64200;55.426;37.758;2023-06-22T23:46:17;6.03;;;1.70;;
75616;SDS011;64200;55.426;37.758;2023-06-22T23:51:19;3.22;;;1.50;;
75616;SDS011;64200;55.426;37.758;2023-06-22T23:56:20;3.20;;;1.92;;
